sensor_id;sensor_type;location;lat;lon;timestamp;P1;durP1;ratioP1;P2;durP2;ratioP2
59474;SDS011;45288;51.136;16.928;2024-02-26T00:00:50;55.90;;;21.42;;
59474;SDS011;45288;51.136;16.928;2024-02-26T00:03:43;63.72;;;24.52;;
59474;SDS011;45288;51.136;16.928;2024-02-26T00:06:23;61.75;;;26.67;;
59474;SDS011;45288;51.136;16.928;2024-02-26T00:09:09;62.30;;;28.07;;
59474;SDS011;45288;51.136;16.928;2024-02-26T00:11:48;70.28;;;31.23;;
59474;SDS011;45288;51.136;16.928;2024-02-26T00:14:34;63.33;;;29.10;;
59474;SDS011;45288;51.136;16.928;2024-02-26T00:17:14;60.63;;;28.48;;
59474;SDS011;45288;51.136;16.928;2024-02-26T00:20:00;59.15;;;26.17;;
59474;SDS011;45288;51.136;16.928;2024-02-26T00:22:43;72.88;;;28.27;;
59474;SDS011;45288;51.136;16.928;2024-02-26T00:25:29;61.33;;;24.88;;
59474;SDS011;45288;51.136;16.928;2024-02-26T00:28:08;59.00;;;24.33;;
59474;SDS011;45288;51.136;16.928;2024-02-26T00:30:54;55.15;;;22.77;;
59474;SDS011;45288;51.136;16.928;2024-02-26T00:33:34;57.42;;;24.35;;
59474;SDS011;45288;51.136;16.928;2024-02-26T00:36:20;55.80;;;24.20;;
59474;SDS011;45288;51.136;16.928;2024-02-26T00:38:59;60.53;;;25.85;;
59474;SDS011;45288;51.136;16.928;2024-02-26T00:41:45;67.30;;;26.40;;
59474;SDS011;45288;51.136;16.928;2024-02-26T00:44:24;62.92;;;25.13;;
59474;SDS011;45288;51.136;16.928;2024-02-26T00:47:10;60.88;;;25.33;;
59474;SDS011;45288;51.136;16.928;2024-02-26T00:49:49;59.95;;;24.13;;
59474;SDS011;45288;51.136;16.928;2024-02-26T00:52:35;61.65;;;25.20;;
59474;SDS011;45288;51.136;16.928;2024-02-26T00:55:14;58.40;;;24.45;;
59474;SDS011;45288;51.136;16.928;2024-02-26T00:58:00;67.25;;;26.20;;
59474;SDS011;45288;51.136;16.928;2024-02-26T01:00:39;67.23;;;25.60;;
59474;SDS011;45288;51.136;16.928;2024-02-26T01:03:25;64.82;;;26.08;;
59474;SDS011;45288;51.136;16.928;2024-02-26T01:06:04;64.95;;;27.42;;
59474;SDS011;45288;51.136;16.928;2024-02-26T01:08:50;70.30;;;27.90;;
59474;SDS011;45288;51.136;16.928;2024-02-26T01:11:29;71.10;;;29.52;;
59474;SDS011;45288;51.136;16.928;2024-02-26T01:14:15;67.25;;;29.38;;
59474;SDS011;45288;51.136;16.928;2024-02-26T01:16:54;76.07;;;32.17;;
59474;SDS011;45288;51.136;16.928;2024-02-26T01:19:40;73.50;;;30.77;;
59474;SDS011;45288;51.136;16.928;2024-02-26T01:22:20;68.65;;;29.75;;
59474;SDS011;45288;51.136;16.928;2024-02-26T01:25:06;63.25;;;28.63;;
59474;SDS011;45288;51.136;16.928;2024-02-26T01:27:46;72.13;;;30.52;;
59474;SDS011;45288;51.136;16.928;2024-02-26T01:30:32;75.07;;;31.02;;
59474;SDS011;45288;51.136;16.928;2024-02-26T01:33:11;71.10;;;30.85;;
59474;SDS011;45288;51.136;16.928;2024-02-26T01:35:57;73.88;;;31.20;;
59474;SDS011;45288;51.136;16.928;2024-02-26T01:38:36;74.07;;;30.57;;
59474;SDS011;45288;51.136;16.928;2024-02-26T01:41:22;68.23;;;30.00;;
59474;SDS011;45288;51.136;16.928;2024-02-26T01:44:01;64.28;;;28.98;;
59474;SDS011;45288;51.136;16.928;2024-02-26T01:46:47;65.85;;;29.15;;
59474;SDS011;45288;51.136;16.928;2024-02-26T01:49:27;64.28;;;27.92;;
59474;SDS011;45288;51.136;16.928;2024-02-26T01:52:14;62.20;;;28.05;;
59474;SDS011;45288;51.136;16.928;2024-02-26T01:54:54;64.00;;;28.17;;
59474;SDS011;45288;51.136;16.928;2024-02-26T01:57:41;66.53;;;27.85;;
59474;SDS011;45288;51.136;16.928;2024-02-26T02:00:22;68.65;;;28.00;;
59474;SDS011;45288;51.136;16.928;2024-02-26T02:03:15;64.13;;;27.50;;
59474;SDS011;45288;51.136;16.928;2024-02-26T02:05:47;66.13;;;28.00;;
59474;SDS011;45288;51.136;16.928;2024-02-26T02:08:40;64.80;;;27.23;;
59474;SDS011;45288;51.136;16.928;2024-02-26T02:11:12;65.50;;;28.45;;
59474;SDS011;45288;51.136;16.928;2024-02-26T02:14:05;59.95;;;26.40;;
59474;SDS011;45288;51.136;16.928;2024-02-26T02:16:38;64.50;;;28.67;;
59474;SDS011;45288;51.136;16.928;2024-02-26T02:19:31;64.33;;;28.37;;
59474;SDS011;45288;51.136;16.928;2024-02-26T02:22:03;65.50;;;29.57;;
59474;SDS011;45288;51.136;16.928;2024-02-26T02:24:56;64.80;;;29.33;;
59474;SDS011;45288;51.136;16.928;2024-02-26T02:27:28;67.63;;;30.10;;
59474;SDS011;45288;51.136;16.928;2024-02-26T02:30:25;65.25;;;30.15;;
59474;SDS011;45288;51.136;16.928;2024-02-26T02:32:59;71.28;;;31.33;;
59474;SDS011;45288;51.136;16.928;2024-02-26T02:35:52;76.50;;;33.35;;
59474;SDS011;45288;51.136;16.928;2024-02-26T02:38:26;68.97;;;32.13;;
59474;SDS011;45288;51.136;16.928;2024-02-26T02:41:19;72.23;;;31.90;;
59474;SDS011;45288;51.136;16.928;2024-02-26T02:43:51;72.50;;;31.77;;
59474;SDS011;45288;51.136;16.928;2024-02-26T02:46:44;70.55;;;31.75;;
59474;SDS011;45288;51.136;16.928;2024-02-26T02:49:23;64.38;;;30.00;;
59474;SDS011;45288;51.136;16.928;2024-02-26T02:52:09;71.55;;;31.23;;
59474;SDS011;45288;51.136;16.928;2024-02-26T02:54:48;63.25;;;29.65;;
59474;SDS011;45288;51.136;16.928;2024-02-26T02:57:34;61.60;;;28.75;;
59474;SDS011;45288;51.136;16.928;2024-02-26T03:00:13;66.38;;;29.85;;
59474;SDS011;45288;51.136;16.928;2024-02-26T03:03:06;66.47;;;28.40;;
59474;SDS011;45288;51.136;16.928;2024-02-26T03:05:38;65.78;;;28.63;;
59474;SDS011;45288;51.136;16.928;2024-02-26T03:08:31;62.65;;;27.63;;
59474;SDS011;45288;51.136;16.928;2024-02-26T03:11:03;60.03;;;26.65;;
59474;SDS011;45288;51.136;16.928;2024-02-26T03:13:57;59.92;;;26.95;;
59474;SDS011;45288;51.136;16.928;2024-02-26T03:16:29;59.85;;;26.15;;
59474;SDS011;45288;51.136;16.928;2024-02-26T03:19:22;54.47;;;24.92;;
59474;SDS011;45288;51.136;16.928;2024-02-26T03:21:54;60.22;;;25.95;;
59474;SDS011;45288;51.136;16.928;2024-02-26T03:24:47;61.53;;;25.73;;
59474;SDS011;45288;51.136;16.928;2024-02-26T03:27:19;61.60;;;27.23;;
59474;SDS011;45288;51.136;16.928;2024-02-26T03:30:12;62.83;;;27.67;;
59474;SDS011;45288;51.136;16.928;2024-02-26T03:32:44;67.97;;;29.02;;
59474;SDS011;45288;51.136;16.928;2024-02-26T03:35:37;62.33;;;27.85;;
59474;SDS011;45288;51.136;16.928;2024-02-26T03:38:09;65.13;;;28.77;;
59474;SDS011;45288;51.136;16.928;2024-02-26T03:41:02;61.58;;;28.17;;
59474;SDS011;45288;51.136;16.928;2024-02-26T03:43:34;63.22;;;27.88;;
59474;SDS011;45288;51.136;16.928;2024-02-26T03:46:27;58.88;;;26.88;;
59474;SDS011;45288;51.136;16.928;2024-02-26T03:48:59;68.00;;;29.05;;
59474;SDS011;45288;51.136;16.928;2024-02-26T03:51:52;56.70;;;26.52;;
59474;SDS011;45288;51.136;16.928;2024-02-26T03:54:24;58.85;;;27.65;;
59474;SDS011;45288;51.136;16.928;2024-02-26T03:57:17;58.20;;;27.75;;
59474;SDS011;45288;51.136;16.928;2024-02-26T03:59:49;61.67;;;29.23;;
59474;SDS011;45288;51.136;16.928;2024-02-26T04:02:49;66.03;;;29.35;;
59474;SDS011;45288;51.136;16.928;2024-02-26T04:05:21;53.70;;;26.38;;
59474;SDS011;45288;51.136;16.928;2024-02-26T04:08:14;63.60;;;27.48;;
59474;SDS011;45288;51.136;16.928;2024-02-26T04:10:46;55.47;;;25.05;;
59474;SDS011;45288;51.136;16.928;2024-02-26T04:13:39;59.22;;;26.60;;
59474;SDS011;45288;51.136;16.928;2024-02-26T04:16:11;58.50;;;25.15;;
59474;SDS011;45288;51.136;16.928;2024-02-26T04:19:04;51.42;;;24.80;;
59474;SDS011;45288;51.136;16.928;2024-02-26T04:21:36;59.22;;;26.65;;
59474;SDS011;45288;51.136;16.928;2024-02-26T04:24:29;54.95;;;26.05;;
59474;SDS011;45288;51.136;16.928;2024-02-26T04:27:01;65.43;;;28.40;;
59474;SDS011;45288;51.136;16.928;2024-02-26T04:29:54;61.90;;;27.73;;
59474;SDS011;45288;51.136;16.928;2024-02-26T04:32:33;54.97;;;26.55;;
59474;SDS011;45288;51.136;16.928;2024-02-26T04:35:19;59.10;;;27.60;;
59474;SDS011;45288;51.136;16.928;2024-02-26T04:37:58;63.78;;;28.20;;
59474;SDS011;45288;51.136;16.928;2024-02-26T04:40:44;57.13;;;27.83;;
59474;SDS011;45288;51.136;16.928;2024-02-26T04:43:23;63.15;;;29.30;;
59474;SDS011;45288;51.136;16.928;2024-02-26T04:46:09;75.50;;;29.73;;
59474;SDS011;45288;51.136;16.928;2024-02-26T04:48:48;59.60;;;28.20;;
59474;SDS011;45288;51.136;16.928;2024-02-26T04:51:34;57.72;;;27.08;;
59474;SDS011;45288;51.136;16.928;2024-02-26T04:54:13;60.50;;;27.85;;
59474;SDS011;45288;51.136;16.928;2024-02-26T04:56:59;59.90;;;27.88;;
59474;SDS011;45288;51.136;16.928;2024-02-26T04:59:38;57.20;;;28.13;;
59474;SDS011;45288;51.136;16.928;2024-02-26T05:02:31;57.25;;;27.65;;
59474;SDS011;45288;51.136;16.928;2024-02-26T05:05:24;56.03;;;27.73;;
59474;SDS011;45288;51.136;16.928;2024-02-26T05:07:56;63.57;;;28.27;;
59474;SDS011;45288;51.136;16.928;2024-02-26T05:10:49;56.05;;;27.58;;
59474;SDS011;45288;51.136;16.928;2024-02-26T05:13:21;74.55;;;38.67;;
59474;SDS011;45288;51.136;16.928;2024-02-26T05:16:14;69.57;;;28.75;;
59474;SDS011;45288;51.136;16.928;2024-02-26T05:18:46;75.03;;;29.92;;
59474;SDS011;45288;51.136;16.928;2024-02-26T05:21:40;56.15;;;27.05;;
59474;SDS011;45288;51.136;16.928;2024-02-26T05:24:12;60.38;;;27.10;;
59474;SDS011;45288;51.136;16.928;2024-02-26T05:27:08;61.17;;;28.00;;
59474;SDS011;45288;51.136;16.928;2024-02-26T05:29:40;62.77;;;28.30;;
59474;SDS011;45288;51.136;16.928;2024-02-26T05:32:33;58.53;;;27.63;;
59474;SDS011;45288;51.136;16.928;2024-02-26T05:35:05;63.65;;;29.13;;
59474;SDS011;45288;51.136;16.928;2024-02-26T05:37:59;70.57;;;29.85;;
59474;SDS011;45288;51.136;16.928;2024-02-26T05:40:31;62.13;;;28.45;;
59474;SDS011;45288;51.136;16.928;2024-02-26T05:43:26;52.58;;;25.98;;
59474;SDS011;45288;51.136;16.928;2024-02-26T05:45:59;63.85;;;27.92;;
59474;SDS011;45288;51.136;16.928;2024-02-26T05:48:52;60.70;;;27.87;;
59474;SDS011;45288;51.136;16.928;2024-02-26T05:51:25;62.00;;;27.03;;
59474;SDS011;45288;51.136;16.928;2024-02-26T05:54:18;60.22;;;27.95;;
59474;SDS011;45288;51.136;16.928;2024-02-26T05:56:50;61.13;;;28.70;;
59474;SDS011;45288;51.136;16.928;2024-02-26T05:59:43;59.58;;;28.17;;
59474;SDS011;45288;51.136;16.928;2024-02-26T06:02:29;61.25;;;28.33;;
59474;SDS011;45288;51.136;16.928;2024-02-26T06:05:23;58.85;;;28.88;;
59474;SDS011;45288;51.136;16.928;2024-02-26T06:07:55;61.47;;;28.73;;
59474;SDS011;45288;51.136;16.928;2024-02-26T06:10:48;61.97;;;28.43;;
59474;SDS011;45288;51.136;16.928;2024-02-26T06:13:20;57.37;;;28.17;;
59474;SDS011;45288;51.136;16.928;2024-02-26T06:16:13;62.40;;;28.73;;
59474;SDS011;45288;51.136;16.928;2024-02-26T06:18:45;62.08;;;28.23;;
59474;SDS011;45288;51.136;16.928;2024-02-26T06:21:38;64.15;;;28.85;;
59474;SDS011;45288;51.136;16.928;2024-02-26T06:24:10;57.08;;;27.52;;
59474;SDS011;45288;51.136;16.928;2024-02-26T06:27:03;58.28;;;27.60;;
59474;SDS011;45288;51.136;16.928;2024-02-26T06:29:35;57.25;;;28.25;;
59474;SDS011;45288;51.136;16.928;2024-02-26T06:32:28;62.58;;;29.48;;
59474;SDS011;45288;51.136;16.928;2024-02-26T06:35:08;54.63;;;28.50;;
59474;SDS011;45288;51.136;16.928;2024-02-26T06:37:54;59.65;;;29.55;;
59474;SDS011;45288;51.136;16.928;2024-02-26T06:40:33;57.85;;;29.02;;
59474;SDS011;45288;51.136;16.928;2024-02-26T06:43:19;52.45;;;28.42;;
59474;SDS011;45288;51.136;16.928;2024-02-26T06:45:58;58.20;;;28.85;;
59474;SDS011;45288;51.136;16.928;2024-02-26T06:48:44;60.45;;;29.10;;
59474;SDS011;45288;51.136;16.928;2024-02-26T06:51:23;56.50;;;27.75;;
59474;SDS011;45288;51.136;16.928;2024-02-26T06:54:09;60.63;;;28.33;;
59474;SDS011;45288;51.136;16.928;2024-02-26T06:56:48;54.37;;;27.67;;
59474;SDS011;45288;51.136;16.928;2024-02-26T06:59:34;53.57;;;28.13;;
59474;SDS011;45288;51.136;16.928;2024-02-26T07:02:20;56.30;;;28.63;;
59474;SDS011;45288;51.136;16.928;2024-02-26T07:05:13;60.40;;;28.88;;
59474;SDS011;45288;51.136;16.928;2024-02-26T07:07:45;54.35;;;28.02;;
59474;SDS011;45288;51.136;16.928;2024-02-26T07:10:38;58.70;;;29.08;;
59474;SDS011;45288;51.136;16.928;2024-02-26T07:13:10;57.80;;;29.30;;
59474;SDS011;45288;51.136;16.928;2024-02-26T07:16:03;66.07;;;31.80;;
59474;SDS011;45288;51.136;16.928;2024-02-26T07:18:39;53.45;;;29.08;;
59474;SDS011;45288;51.136;16.928;2024-02-26T07:21:32;58.17;;;30.50;;
59474;SDS011;45288;51.136;16.928;2024-02-26T07:24:04;60.38;;;29.63;;
59474;SDS011;45288;51.136;16.928;2024-02-26T07:26:57;60.77;;;29.77;;
59474;SDS011;45288;51.136;16.928;2024-02-26T07:29:29;60.95;;;31.00;;
59474;SDS011;45288;51.136;16.928;2024-02-26T07:32:22;56.35;;;30.38;;
59474;SDS011;45288;51.136;16.928;2024-02-26T07:34:54;57.00;;;29.95;;
59474;SDS011;45288;51.136;16.928;2024-02-26T07:37:50;58.60;;;29.83;;
59474;SDS011;45288;51.136;16.928;2024-02-26T07:40:22;55.47;;;29.37;;
59474;SDS011;45288;51.136;16.928;2024-02-26T07:43:15;62.40;;;29.55;;
59474;SDS011;45288;51.136;16.928;2024-02-26T07:45:47;64.45;;;28.55;;
59474;SDS011;45288;51.136;16.928;2024-02-26T07:48:40;49.47;;;26.08;;
59474;SDS011;45288;51.136;16.928;2024-02-26T07:51:13;52.63;;;27.65;;
59474;SDS011;45288;51.136;16.928;2024-02-26T07:54:06;49.35;;;26.23;;
59474;SDS011;45288;51.136;16.928;2024-02-26T07:56:38;43.77;;;24.37;;
59474;SDS011;45288;51.136;16.928;2024-02-26T07:59:31;40.13;;;22.33;;
59474;SDS011;45288;51.136;16.928;2024-02-26T08:02:04;42.67;;;21.15;;
59474;SDS011;45288;51.136;16.928;2024-02-26T08:04:57;47.92;;;22.02;;
59474;SDS011;45288;51.136;16.928;2024-02-26T08:07:29;41.42;;;21.23;;
59474;SDS011;45288;51.136;16.928;2024-02-26T08:10:22;42.90;;;21.67;;
59474;SDS011;45288;51.136;16.928;2024-02-26T08:12:54;40.65;;;21.30;;
59474;SDS011;45288;51.136;16.928;2024-02-26T08:15:51;40.05;;;18.88;;
59474;SDS011;45288;51.136;16.928;2024-02-26T08:18:23;39.53;;;20.98;;
59474;SDS011;45288;51.136;16.928;2024-02-26T08:21:16;38.42;;;19.88;;
59474;SDS011;45288;51.136;16.928;2024-02-26T08:23:48;42.35;;;20.95;;
59474;SDS011;45288;51.136;16.928;2024-02-26T08:26:41;35.80;;;19.40;;
59474;SDS011;45288;51.136;16.928;2024-02-26T08:29:13;40.40;;;20.15;;
59474;SDS011;45288;51.136;16.928;2024-02-26T08:32:06;38.85;;;19.27;;
59474;SDS011;45288;51.136;16.928;2024-02-26T08:34:39;42.95;;;20.30;;
59474;SDS011;45288;51.136;16.928;2024-02-26T08:37:32;41.55;;;19.92;;
59474;SDS011;45288;51.136;16.928;2024-02-26T08:40:11;40.22;;;19.10;;
59474;SDS011;45288;51.136;16.928;2024-02-26T08:42:58;35.60;;;17.52;;
59474;SDS011;45288;51.136;16.928;2024-02-26T08:45:37;42.70;;;19.60;;
59474;SDS011;45288;51.136;16.928;2024-02-26T08:48:23;33.85;;;17.00;;
59474;SDS011;45288;51.136;16.928;2024-02-26T08:51:06;34.45;;;17.35;;
59474;SDS011;45288;51.136;16.928;2024-02-26T08:53:53;33.55;;;16.55;;
59474;SDS011;45288;51.136;16.928;2024-02-26T08:56:32;35.65;;;16.30;;
59474;SDS011;45288;51.136;16.928;2024-02-26T08:59:18;36.83;;;15.77;;
59474;SDS011;45288;51.136;16.928;2024-02-26T09:02:09;33.05;;;15.05;;
59474;SDS011;45288;51.136;16.928;2024-02-26T09:05:02;40.55;;;16.30;;
59474;SDS011;45288;51.136;16.928;2024-02-26T09:07:34;30.80;;;13.73;;
59474;SDS011;45288;51.136;16.928;2024-02-26T09:10:27;29.27;;;14.43;;
59474;SDS011;45288;51.136;16.928;2024-02-26T09:12:59;45.13;;;16.40;;
59474;SDS011;45288;51.136;16.928;2024-02-26T09:15:52;36.38;;;14.18;;
59474;SDS011;45288;51.136;16.928;2024-02-26T09:18:24;38.72;;;14.82;;
59474;SDS011;45288;51.136;16.928;2024-02-26T09:21:17;35.65;;;14.45;;
59474;SDS011;45288;51.136;16.928;2024-02-26T09:23:54;36.27;;;14.57;;
59474;SDS011;45288;51.136;16.928;2024-02-26T09:26:47;30.10;;;12.80;;
59474;SDS011;45288;51.136;16.928;2024-02-26T09:29:19;31.65;;;12.90;;
59474;SDS011;45288;51.136;16.928;2024-02-26T09:32:13;35.53;;;13.52;;
59474;SDS011;45288;51.136;16.928;2024-02-26T09:34:45;30.98;;;13.45;;
59474;SDS011;45288;51.136;16.928;2024-02-26T09:37:38;25.85;;;11.90;;
59474;SDS011;45288;51.136;16.928;2024-02-26T09:40:10;52.63;;;17.52;;
59474;SDS011;45288;51.136;16.928;2024-02-26T09:43:04;29.92;;;12.50;;
59474;SDS011;45288;51.136;16.928;2024-02-26T09:45:37;33.08;;;12.60;;
59474;SDS011;45288;51.136;16.928;2024-02-26T09:48:30;28.92;;;11.65;;
59474;SDS011;45288;51.136;16.928;2024-02-26T09:51:03;31.40;;;12.60;;
59474;SDS011;45288;51.136;16.928;2024-02-26T09:53:56;33.38;;;12.63;;
59474;SDS011;45288;51.136;16.928;2024-02-26T09:56:31;28.95;;;11.95;;
59474;SDS011;45288;51.136;16.928;2024-02-26T09:59:24;29.57;;;11.50;;
59474;SDS011;45288;51.136;16.928;2024-02-26T10:01:56;27.63;;;11.00;;
59474;SDS011;45288;51.136;16.928;2024-02-26T10:04:51;27.40;;;10.38;;
59474;SDS011;45288;51.136;16.928;2024-02-26T10:07:25;24.52;;;10.00;;
59474;SDS011;45288;51.136;16.928;2024-02-26T10:10:18;32.40;;;11.45;;
59474;SDS011;45288;51.136;16.928;2024-02-26T10:12:51;26.30;;;10.23;;
59474;SDS011;45288;51.136;16.928;2024-02-26T10:15:44;22.42;;;9.15;;
59474;SDS011;45288;51.136;16.928;2024-02-26T10:18:16;35.63;;;13.70;;
59474;SDS011;45288;51.136;16.928;2024-02-26T10:21:10;41.88;;;29.05;;
59474;SDS011;45288;51.136;16.928;2024-02-26T10:23:42;34.25;;;11.70;;
59474;SDS011;45288;51.136;16.928;2024-02-26T10:26:36;38.67;;;19.65;;
59474;SDS011;45288;51.136;16.928;2024-02-26T10:29:08;42.75;;;12.65;;
59474;SDS011;45288;51.136;16.928;2024-02-26T10:32:01;36.00;;;11.95;;
59474;SDS011;45288;51.136;16.928;2024-02-26T10:34:33;35.08;;;11.32;;
59474;SDS011;45288;51.136;16.928;2024-02-26T10:37:28;28.73;;;9.45;;
59474;SDS011;45288;51.136;16.928;2024-02-26T10:40:01;32.05;;;11.27;;
59474;SDS011;45288;51.136;16.928;2024-02-26T10:42:54;33.90;;;10.88;;
59474;SDS011;45288;51.136;16.928;2024-02-26T10:45:33;51.55;;;12.63;;
59474;SDS011;45288;51.136;16.928;2024-02-26T10:48:21;30.90;;;9.60;;
59474;SDS011;45288;51.136;16.928;2024-02-26T10:51:01;49.42;;;11.25;;
59474;SDS011;45288;51.136;16.928;2024-02-26T10:53:47;43.65;;;10.77;;
59474;SDS011;45288;51.136;16.928;2024-02-26T10:56:30;41.42;;;11.80;;
59474;SDS011;45288;51.136;16.928;2024-02-26T10:59:20;51.97;;;12.60;;
59474;SDS011;45288;51.136;16.928;2024-02-26T11:02:07;51.15;;;16.13;;
59474;SDS011;45288;51.136;16.928;2024-02-26T11:05:02;40.78;;;13.00;;
59474;SDS011;45288;51.136;16.928;2024-02-26T11:07:35;49.03;;;39.13;;
59474;SDS011;45288;51.136;16.928;2024-02-26T11:10:29;31.03;;;10.33;;
59474;SDS011;45288;51.136;16.928;2024-02-26T11:13:01;35.03;;;11.45;;
59474;SDS011;45288;51.136;16.928;2024-02-26T11:15:57;33.42;;;11.45;;
59474;SDS011;45288;51.136;16.928;2024-02-26T11:18:30;26.20;;;9.73;;
59474;SDS011;45288;51.136;16.928;2024-02-26T11:21:24;34.37;;;11.03;;
59474;SDS011;45288;51.136;16.928;2024-02-26T11:24:11;29.00;;;9.73;;
59474;SDS011;45288;51.136;16.928;2024-02-26T11:27:05;27.90;;;9.57;;
59474;SDS011;45288;51.136;16.928;2024-02-26T11:29:39;24.15;;;9.32;;
59474;SDS011;45288;51.136;16.928;2024-02-26T11:32:36;20.47;;;8.43;;
59474;SDS011;45288;51.136;16.928;2024-02-26T11:35:08;20.88;;;8.32;;
59474;SDS011;45288;51.136;16.928;2024-02-26T11:38:02;28.90;;;9.00;;
59474;SDS011;45288;51.136;16.928;2024-02-26T11:40:38;28.88;;;8.65;;
59474;SDS011;45288;51.136;16.928;2024-02-26T11:43:50;19.37;;;6.80;;
59474;SDS011;45288;51.136;16.928;2024-02-26T11:46:40;25.20;;;8.85;;
59474;SDS011;45288;51.136;16.928;2024-02-26T11:49:34;23.20;;;8.60;;
59474;SDS011;45288;51.136;16.928;2024-02-26T11:52:08;27.90;;;8.95;;
59474;SDS011;45288;51.136;16.928;2024-02-26T11:55:01;23.90;;;7.75;;
59474;SDS011;45288;51.136;16.928;2024-02-26T11:57:39;25.23;;;7.85;;
59474;SDS011;45288;51.136;16.928;2024-02-26T12:00:32;22.30;;;6.65;;
59474;SDS011;45288;51.136;16.928;2024-02-26T12:03:25;24.20;;;6.83;;
59474;SDS011;45288;51.136;16.928;2024-02-26T12:05:57;24.98;;;7.03;;
59474;SDS011;45288;51.136;16.928;2024-02-26T12:08:50;18.00;;;6.20;;
59474;SDS011;45288;51.136;16.928;2024-02-26T12:11:22;20.90;;;6.40;;
59474;SDS011;45288;51.136;16.928;2024-02-26T12:14:15;20.60;;;6.30;;
59474;SDS011;45288;51.136;16.928;2024-02-26T12:16:49;25.95;;;7.13;;
59474;SDS011;45288;51.136;16.928;2024-02-26T12:19:43;24.60;;;6.82;;
59474;SDS011;45288;51.136;16.928;2024-02-26T12:22:15;26.63;;;7.82;;
59474;SDS011;45288;51.136;16.928;2024-02-26T12:25:11;23.58;;;7.10;;
59474;SDS011;45288;51.136;16.928;2024-02-26T12:27:44;19.85;;;6.20;;
59474;SDS011;45288;51.136;16.928;2024-02-26T12:30:37;24.10;;;6.15;;
59474;SDS011;45288;51.136;16.928;2024-02-26T12:33:09;20.13;;;6.13;;
59474;SDS011;45288;51.136;16.928;2024-02-26T12:36:03;23.17;;;6.72;;
59474;SDS011;45288;51.136;16.928;2024-02-26T12:38:35;22.15;;;6.22;;
59474;SDS011;45288;51.136;16.928;2024-02-26T12:41:28;20.33;;;6.20;;
59474;SDS011;45288;51.136;16.928;2024-02-26T12:44:03;28.50;;;8.00;;
59474;SDS011;45288;51.136;16.928;2024-02-26T12:47:00;22.65;;;6.63;;
59474;SDS011;45288;51.136;16.928;2024-02-26T12:49:43;19.00;;;5.80;;
59474;SDS011;45288;51.136;16.928;2024-02-26T12:52:29;20.73;;;6.17;;
59474;SDS011;45288;51.136;16.928;2024-02-26T12:55:18;29.52;;;7.28;;
59474;SDS011;45288;51.136;16.928;2024-02-26T12:58:09;33.63;;;7.70;;
59474;SDS011;45288;51.136;16.928;2024-02-26T13:00:56;26.10;;;7.00;;
59474;SDS011;45288;51.136;16.928;2024-02-26T13:03:49;31.63;;;7.95;;
59474;SDS011;45288;51.136;16.928;2024-02-26T13:06:23;27.33;;;7.43;;
59474;SDS011;45288;51.136;16.928;2024-02-26T13:09:16;34.70;;;8.77;;
59474;SDS011;45288;51.136;16.928;2024-02-26T13:11:54;27.10;;;6.93;;
59474;SDS011;45288;51.136;16.928;2024-02-26T13:14:48;21.98;;;6.47;;
59474;SDS011;45288;51.136;16.928;2024-02-26T13:17:33;28.67;;;7.55;;
59474;SDS011;45288;51.136;16.928;2024-02-26T13:20:26;37.17;;;14.27;;
59474;SDS011;45288;51.136;16.928;2024-02-26T13:23:03;26.70;;;7.50;;
59474;SDS011;45288;51.136;16.928;2024-02-26T13:25:57;37.55;;;22.25;;
59474;SDS011;45288;51.136;16.928;2024-02-26T13:28:29;29.20;;;7.95;;
59474;SDS011;45288;51.136;16.928;2024-02-26T13:31:22;19.67;;;6.03;;
59474;SDS011;45288;51.136;16.928;2024-02-26T13:33:54;26.02;;;7.63;;
59474;SDS011;45288;51.136;16.928;2024-02-26T13:36:47;23.90;;;7.30;;
59474;SDS011;45288;51.136;16.928;2024-02-26T13:39:26;27.02;;;7.60;;
59474;SDS011;45288;51.136;16.928;2024-02-26T13:42:20;25.58;;;7.13;;
59474;SDS011;45288;51.136;16.928;2024-02-26T13:44:52;23.45;;;7.25;;
59474;SDS011;45288;51.136;16.928;2024-02-26T13:47:45;25.52;;;6.93;;
59474;SDS011;45288;51.136;16.928;2024-02-26T13:50:24;20.90;;;6.93;;
59474;SDS011;45288;51.136;16.928;2024-02-26T13:53:10;24.65;;;7.22;;
59474;SDS011;45288;51.136;16.928;2024-02-26T13:55:50;26.33;;;7.68;;
59474;SDS011;45288;51.136;16.928;2024-02-26T13:58:37;22.10;;;6.80;;
59474;SDS011;45288;51.136;16.928;2024-02-26T14:01:16;18.60;;;6.07;;
59474;SDS011;45288;51.136;16.928;2024-02-26T14:04:09;20.48;;;6.68;;
59474;SDS011;45288;51.136;16.928;2024-02-26T14:06:42;19.90;;;6.53;;
59474;SDS011;45288;51.136;16.928;2024-02-26T14:09:35;19.30;;;6.03;;
59474;SDS011;45288;51.136;16.928;2024-02-26T14:12:07;24.10;;;6.80;;
59474;SDS011;45288;51.136;16.928;2024-02-26T14:15:00;23.60;;;6.82;;
59474;SDS011;45288;51.136;16.928;2024-02-26T14:17:35;19.23;;;6.07;;
59474;SDS011;45288;51.136;16.928;2024-02-26T14:20:28;23.23;;;6.90;;
59474;SDS011;45288;51.136;16.928;2024-02-26T14:23:00;23.63;;;7.37;;
59474;SDS011;45288;51.136;16.928;2024-02-26T14:25:53;21.25;;;6.75;;
59474;SDS011;45288;51.136;16.928;2024-02-26T14:28:25;24.17;;;6.82;;
59474;SDS011;45288;51.136;16.928;2024-02-26T14:31:19;24.83;;;6.90;;
59474;SDS011;45288;51.136;16.928;2024-02-26T14:33:51;26.20;;;7.22;;
59474;SDS011;45288;51.136;16.928;2024-02-26T14:36:44;24.63;;;6.78;;
59474;SDS011;45288;51.136;16.928;2024-02-26T14:39:16;24.23;;;6.90;;
59474;SDS011;45288;51.136;16.928;2024-02-26T14:42:09;24.97;;;6.53;;
59474;SDS011;45288;51.136;16.928;2024-02-26T14:44:41;22.98;;;6.40;;
59474;SDS011;45288;51.136;16.928;2024-02-26T14:47:37;26.90;;;6.72;;
59474;SDS011;45288;51.136;16.928;2024-02-26T14:50:09;25.65;;;7.00;;
59474;SDS011;45288;51.136;16.928;2024-02-26T14:53:02;26.67;;;7.53;;
59474;SDS011;45288;51.136;16.928;2024-02-26T14:55:43;26.80;;;6.95;;
59474;SDS011;45288;51.136;16.928;2024-02-26T14:58:36;20.42;;;6.47;;
59474;SDS011;45288;51.136;16.928;2024-02-26T15:01:09;69.35;;;12.10;;
59474;SDS011;45288;51.136;16.928;2024-02-26T15:04:02;54.07;;;9.30;;
59474;SDS011;45288;51.136;16.928;2024-02-26T15:06:37;59.90;;;10.43;;
59474;SDS011;45288;51.136;16.928;2024-02-26T15:09:30;47.78;;;8.68;;
59474;SDS011;45288;51.136;16.928;2024-02-26T15:12:02;47.25;;;9.38;;
59474;SDS011;45288;51.136;16.928;2024-02-26T15:14:55;35.13;;;7.85;;
59474;SDS011;45288;51.136;16.928;2024-02-26T15:17:29;30.83;;;8.27;;
59474;SDS011;45288;51.136;16.928;2024-02-26T15:20:21;30.52;;;8.00;;
59474;SDS011;45288;51.136;16.928;2024-02-26T15:22:53;24.50;;;7.05;;
59474;SDS011;45288;51.136;16.928;2024-02-26T15:25:46;25.77;;;7.25;;
59474;SDS011;45288;51.136;16.928;2024-02-26T15:28:18;30.10;;;7.68;;
59474;SDS011;45288;51.136;16.928;2024-02-26T15:31:12;28.98;;;7.60;;
59474;SDS011;45288;51.136;16.928;2024-02-26T15:33:44;34.17;;;9.00;;
59474;SDS011;45288;51.136;16.928;2024-02-26T15:36:37;31.15;;;8.52;;
59474;SDS011;45288;51.136;16.928;2024-02-26T15:39:09;36.60;;;9.77;;
59474;SDS011;45288;51.136;16.928;2024-02-26T15:42:02;33.65;;;8.75;;
59474;SDS011;45288;51.136;16.928;2024-02-26T15:44:36;31.38;;;8.40;;
59474;SDS011;45288;51.136;16.928;2024-02-26T15:47:29;39.58;;;10.25;;